createdAt,value
2023-02-19T00:01:53.189Z,76.94
2023-02-19T00:10:16.217Z,76.77
2023-02-19T00:18:39.609Z,76.78
2023-02-19T00:27:02.397Z,76.79
2023-02-19T00:35:25.505Z,76.84
2023-02-19T00:43:53.206Z,76.92
2023-02-19T00:52:17.558Z,76.65
2023-02-19T01:00:40.445Z,76.54
2023-02-19T01:09:05.372Z,76.66
2023-02-19T01:17:28.362Z,76.72
2023-02-19T01:25:51.220Z,76.81
2023-02-19T01:34:14.054Z,76.87
2023-02-19T01:42:43.804Z,76.96
2023-02-19T01:51:11.822Z,76.93
2023-02-19T01:59:35.058Z,76.95
2023-02-19T02:08:18.927Z,76.98
2023-02-19T02:16:58.353Z,77.19
2023-02-19T02:25:24.310Z,77.08
2023-02-19T02:33:56.355Z,77.29
2023-02-19T02:42:28.357Z,77.20
2023-02-19T02:51:06.052Z,77.18
2023-02-19T02:59:38.259Z,77.07
2023-02-19T03:08:14.132Z,77.16
2023-02-19T03:16:59.291Z,77.19
2023-02-19T03:25:45.927Z,77.36
2023-02-19T03:34:17.299Z,77.28
2023-02-19T03:43:11.367Z,77.24
2023-02-19T03:51:45.080Z,77.22
2023-02-19T04:00:14.178Z,77.29
2023-02-19T04:08:40.952Z,77.35
2023-02-19T04:17:08.801Z,77.42
2023-02-19T04:25:33.399Z,77.35
2023-02-19T04:33:57.079Z,77.38
2023-02-19T04:42:19.958Z,77.20
2023-02-19T04:50:42.945Z,77.16
2023-02-19T04:59:05.938Z,77.21
2023-02-19T05:07:28.849Z,77.13
2023-02-19T05:16:03.397Z,77.18
2023-02-19T05:24:27.661Z,77.45
2023-02-19T05:32:50.533Z,77.36
2023-02-19T05:41:17.269Z,77.48
2023-02-19T05:49:40.200Z,77.36
2023-02-19T05:58:03.557Z,77.27
2023-02-19T06:06:27.442Z,77.13
2023-02-19T06:14:51.201Z,77.16
2023-02-19T06:23:14.115Z,77.10
2023-02-19T06:31:37.037Z,77.28
2023-02-19T06:40:00.006Z,77.09
2023-02-19T06:48:22.898Z,77.15
2023-02-19T06:56:47.149Z,77.04
2023-02-19T07:05:10.117Z,77.18
2023-02-19T07:13:33.060Z,77.13
2023-02-19T07:21:55.912Z,77.15
2023-02-19T07:30:18.897Z,77.22
2023-02-19T07:38:41.733Z,77.27
2023-02-19T07:47:04.628Z,77.14
2023-02-19T07:55:27.612Z,77.39
2023-02-19T08:03:50.649Z,77.49
2023-02-19T08:12:32.358Z,77.44
2023-02-19T08:20:57.571Z,77.62
2023-02-19T08:29:20.406Z,77.50
2023-02-19T08:37:43.251Z,77.40
2023-02-19T08:46:08.072Z,77.29
2023-02-19T08:54:30.905Z,77.30
2023-02-19T09:02:53.862Z,77.21
2023-02-19T09:11:16.824Z,77.50
2023-02-19T09:19:39.765Z,77.52
2023-02-19T09:28:02.598Z,77.65
2023-02-19T09:36:25.486Z,77.56
2023-02-19T09:44:51.176Z,77.66
2023-02-19T09:53:25.593Z,77.43
2023-02-19T10:01:52.119Z,77.62
2023-02-19T10:10:14.981Z,77.51
2023-02-19T10:18:42.704Z,77.24
2023-02-19T10:27:11.726Z,77.28
2023-02-19T10:35:37.478Z,77.44
2023-02-19T10:44:21.578Z,77.33
2023-02-19T10:52:44.423Z,77.39
2023-02-19T11:01:23.968Z,77.27
2023-02-19T11:09:53.840Z,77.03
2023-02-19T11:18:35.067Z,77.16
2023-02-19T11:26:59.584Z,77.23
2023-02-19T11:35:25.338Z,77.41
2023-02-19T11:44:19.660Z,77.23
2023-02-19T11:52:56.195Z,77.06
2023-02-19T12:01:37.149Z,77.05
2023-02-19T12:10:02.997Z,77.12
2023-02-19T12:18:25.812Z,77.08
2023-02-19T12:27:20.150Z,76.75
2023-02-19T12:35:55.987Z,76.81
2023-02-19T12:44:28.096Z,76.86
2023-02-19T12:52:57.214Z,76.95
2023-02-19T13:01:31.031Z,76.99
2023-02-19T13:09:59.266Z,76.81
2023-02-19T13:18:54.205Z,76.69
2023-02-19T13:27:41.294Z,76.43
2023-02-19T13:36:12.734Z,76.38
2023-02-19T13:44:38.714Z,76.52
2023-02-19T13:53:22.368Z,76.50
2023-02-19T14:01:53.980Z,76.43
2023-02-19T14:10:42.046Z,76.25
2023-02-19T14:19:14.528Z,76.12
2023-02-19T14:27:38.342Z,76.11
2023-02-19T14:36:14.125Z,76.20
2023-02-19T14:44:49.060Z,75.84
2023-02-19T14:53:16.061Z,75.94
2023-02-19T15:01:39.319Z,75.68
2023-02-19T15:10:05.848Z,75.93
2023-02-19T15:18:30.189Z,75.92
2023-02-19T15:26:54.842Z,75.90
2023-02-19T15:35:20.003Z,75.68
2023-02-19T15:44:29.442Z,75.53
2023-02-19T15:53:04.063Z,75.47
2023-02-19T16:01:29.677Z,75.43
2023-02-19T16:10:20.939Z,75.38
2023-02-19T16:18:49.198Z,75.47
2023-02-19T16:27:14.229Z,75.76
2023-02-19T16:35:42.824Z,75.52
2023-02-19T16:44:25.907Z,75.50
2023-02-19T16:52:55.982Z,75.52
2023-02-19T17:01:19.581Z,75.31
2023-02-19T17:09:42.921Z,75.47
2023-02-19T17:18:05.962Z,75.51
2023-02-19T17:26:30.992Z,75.42
2023-02-19T17:34:53.828Z,75.26
2023-02-19T17:43:16.816Z,75.08
2023-02-19T17:51:39.652Z,75.06
2023-02-19T18:00:02.704Z,74.67
2023-02-19T18:08:35.921Z,74.75
2023-02-19T18:16:58.927Z,74.96
2023-02-19T18:25:23.037Z,75.00
2023-02-19T18:33:45.938Z,75.08
2023-02-19T18:42:08.741Z,74.98
2023-02-19T18:50:33.450Z,74.98
2023-02-19T18:58:57.609Z,74.95
2023-02-19T19:07:20.870Z,74.84
2023-02-19T19:15:45.160Z,74.74
2023-02-19T19:24:08.977Z,74.71
2023-02-19T19:32:31.754Z,74.67
2023-02-19T19:40:54.819Z,74.77
2023-02-19T19:49:19.571Z,74.72
2023-02-19T19:57:42.536Z,74.62
2023-02-19T20:06:05.581Z,74.53
2023-02-19T20:14:28.658Z,74.57
2023-02-19T20:22:52.079Z,74.62
2023-02-19T20:31:15.174Z,74.37
2023-02-19T20:39:38.260Z,74.40
2023-02-19T20:48:01.424Z,74.34
2023-02-19T20:56:24.385Z,74.48
2023-02-19T21:04:48.377Z,74.56
2023-02-19T21:13:11.596Z,74.35
2023-02-19T21:21:35.520Z,74.20
2023-02-19T21:29:58.372Z,74.02
2023-02-19T21:38:21.146Z,74.20
2023-02-19T21:46:44.079Z,74.14
2023-02-19T21:55:06.949Z,74.22
2023-02-19T22:03:29.857Z,74.33
2023-02-19T22:11:52.814Z,74.03
2023-02-19T22:20:17.330Z,73.86
2023-02-19T22:28:40.154Z,73.96
2023-02-19T22:37:03.041Z,73.77
2023-02-19T22:45:26.367Z,73.83
2023-02-19T22:53:51.699Z,73.92
2023-02-19T23:02:14.567Z,73.87
2023-02-19T23:10:37.693Z,73.61
2023-02-19T23:19:00.518Z,73.91
2023-02-19T23:27:24.350Z,73.92
2023-02-19T23:35:47.510Z,73.65
2023-02-19T23:44:10.364Z,73.77
2023-02-19T23:52:33.178Z,73.69
